<?xml version="1.0" encoding="UTF-8" standalone="no" ?>
<gpx xmlns="http://www.topografix.com/GPX/1/1" xmlns:xsi="http://www.w3.org/2001/XMLSchema-instance" xsi:schemaLocation="http://www.topografix.com/GPX/1/1 http://www.topografix.com/GPX/1/1/gpx.xsd" version="1.1" creator="VisuGPX - https://www.visugpx.com">
  <metadata>
    <name>Le haut Soultzbach</name>
    <desc><![CDATA[Le Haut Soultzbach]]></desc>
  </metadata>
  <trk>
    <name><![CDATA[Le haut Soultzbach_1]]></name>
    <trkseg>
      <trkpt lat="47.73144" lon="7.0525">
        <ele>377.5</ele>
        <time>2016-05-22T07:49:58Z</time>
      </trkpt>
      <trkpt lat="47.73144" lon="7.0525">
        <ele>443</ele>
        <time>2016-05-22T07:50:00Z</time>
      </trkpt>
      <trkpt lat="47.7312" lon="7.05234">
        <ele>436</ele>
        <time>2016-05-22T07:51:16Z</time>
      </trkpt>
      <trkpt lat="47.73102" lon="7.05249">
        <ele>433</ele>
        <time>2016-05-22T07:51:33Z</time>
      </trkpt>
      <trkpt lat="47.73084" lon="7.05271">
        <ele>436</ele>
        <time>2016-05-22T07:51:49Z</time>
      </trkpt>
      <trkpt lat="47.7307" lon="7.05288">
        <ele>434</ele>
        <time>2016-05-22T07:52:04Z</time>
      </trkpt>
      <trkpt lat="47.73061" lon="7.05299">
        <ele>432</ele>
        <time>2016-05-22T07:52:14Z</time>
      </trkpt>
      <trkpt lat="47.73042" lon="7.05304">
        <ele>429</ele>
        <time>2016-05-22T07:52:32Z</time>
      </trkpt>
      <trkpt lat="47.73041" lon="7.05261">
        <ele>432</ele>
        <time>2016-05-22T07:52:52Z</time>
      </trkpt>
      <trkpt lat="47.73038" lon="7.05229">
        <ele>437</ele>
        <time>2016-05-22T07:53:07Z</time>
      </trkpt>
      <trkpt lat="47.73036" lon="7.05209">
        <ele>436</ele>
        <time>2016-05-22T07:53:18Z</time>
      </trkpt>
      <trkpt lat="47.73036" lon="7.05181">
        <ele>437</ele>
        <time>2016-05-22T07:53:34Z</time>
      </trkpt>
      <trkpt lat="47.73036" lon="7.05161">
        <ele>437</ele>
        <time>2016-05-22T07:53:45Z</time>
      </trkpt>
      <trkpt lat="47.73034" lon="7.05133">
        <ele>436</ele>
        <time>2016-05-22T07:53:59Z</time>
      </trkpt>
      <trkpt lat="47.73046" lon="7.05113">
        <ele>438</ele>
        <time>2016-05-22T07:54:16Z</time>
      </trkpt>
      <trkpt lat="47.73061" lon="7.05093">
        <ele>438</ele>
        <time>2016-05-22T07:54:33Z</time>
      </trkpt>
      <trkpt lat="47.73073" lon="7.05076">
        <ele>439</ele>
        <time>2016-05-22T07:54:48Z</time>
      </trkpt>
      <trkpt lat="47.7308" lon="7.05065">
        <ele>437</ele>
        <time>2016-05-22T07:54:58Z</time>
      </trkpt>
      <trkpt lat="47.73093" lon="7.05044">
        <ele>441</ele>
        <time>2016-05-22T07:55:16Z</time>
      </trkpt>
      <trkpt lat="47.731" lon="7.05021">
        <ele>437</ele>
        <time>2016-05-22T07:55:32Z</time>
      </trkpt>
      <trkpt lat="47.73097" lon="7.04997">
        <ele>437</ele>
        <time>2016-05-22T07:55:52Z</time>
      </trkpt>
      <trkpt lat="47.73097" lon="7.04977">
        <ele>440</ele>
        <time>2016-05-22T07:56:04Z</time>
      </trkpt>
      <trkpt lat="47.73095" lon="7.04942">
        <ele>440</ele>
        <time>2016-05-22T07:56:22Z</time>
      </trkpt>
      <trkpt lat="47.73095" lon="7.04942">
        <ele>440</ele>
        <time>2016-05-22T07:56:27Z</time>
      </trkpt>
      <trkpt lat="47.73095" lon="7.04942">
        <ele>440</ele>
        <time>2016-05-22T07:56:28Z</time>
      </trkpt>
      <trkpt lat="47.73098" lon="7.04921">
        <ele>449</ele>
        <time>2016-05-22T07:57:02Z</time>
      </trkpt>
      <trkpt lat="47.73103" lon="7.0491">
        <ele>449</ele>
        <time>2016-05-22T07:57:13Z</time>
      </trkpt>
      <trkpt lat="47.73102" lon="7.04896">
        <ele>447</ele>
        <time>2016-05-22T07:57:27Z</time>
      </trkpt>
      <trkpt lat="47.73103" lon="7.0486">
        <ele>445</ele>
        <time>2016-05-22T07:57:43Z</time>
      </trkpt>
      <trkpt lat="47.73111" lon="7.0485">
        <ele>445</ele>
        <time>2016-05-22T07:57:53Z</time>
      </trkpt>
      <trkpt lat="47.73114" lon="7.04839">
        <ele>441</ele>
        <time>2016-05-22T07:58:04Z</time>
      </trkpt>
      <trkpt lat="47.73116" lon="7.04823">
        <ele>443</ele>
        <time>2016-05-22T07:58:12Z</time>
      </trkpt>
      <trkpt lat="47.7312" lon="7.04793">
        <ele>448</ele>
        <time>2016-05-22T07:58:32Z</time>
      </trkpt>
      <trkpt lat="47.73109" lon="7.04791">
        <ele>453</ele>
        <time>2016-05-22T07:58:38Z</time>
      </trkpt>
      <trkpt lat="47.7312" lon="7.04769">
        <ele>452</ele>
        <time>2016-05-22T07:58:52Z</time>
      </trkpt>
      <trkpt lat="47.73119" lon="7.04749">
        <ele>456</ele>
        <time>2016-05-22T07:59:07Z</time>
      </trkpt>
      <trkpt lat="47.73116" lon="7.04725">
        <ele>458</ele>
        <time>2016-05-22T07:59:18Z</time>
      </trkpt>
      <trkpt lat="47.73116" lon="7.04725">
        <ele>458</ele>
        <time>2016-05-22T07:59:23Z</time>
      </trkpt>
      <trkpt lat="47.73116" lon="7.04725">
        <ele>458</ele>
        <time>2016-05-22T07:59:24Z</time>
      </trkpt>
      <trkpt lat="47.73114" lon="7.04704">
        <ele>456</ele>
        <time>2016-05-22T07:59:40Z</time>
      </trkpt>
      <trkpt lat="47.73113" lon="7.04684">
        <ele>457</ele>
        <time>2016-05-22T07:59:56Z</time>
      </trkpt>
      <trkpt lat="47.73122" lon="7.04658">
        <ele>457</ele>
        <time>2016-05-22T08:00:14Z</time>
      </trkpt>
      <trkpt lat="47.73125" lon="7.04639">
        <ele>462</ele>
        <time>2016-05-22T08:00:25Z</time>
      </trkpt>
      <trkpt lat="47.73129" lon="7.04632">
        <ele>463</ele>
        <time>2016-05-22T08:00:40Z</time>
      </trkpt>
      <trkpt lat="47.73132" lon="7.0461">
        <ele>470</ele>
        <time>2016-05-22T08:00:57Z</time>
      </trkpt>
      <trkpt lat="47.73143" lon="7.04587">
        <ele>467</ele>
        <time>2016-05-22T08:01:13Z</time>
      </trkpt>
      <trkpt lat="47.73137" lon="7.04577">
        <ele>464</ele>
        <time>2016-05-22T08:01:19Z</time>
      </trkpt>
      <trkpt lat="47.7314" lon="7.04567">
        <ele>465</ele>
        <time>2016-05-22T08:01:26Z</time>
      </trkpt>
      <trkpt lat="47.73151" lon="7.04526">
        <ele>466</ele>
        <time>2016-05-22T08:02:14Z</time>
      </trkpt>
      <trkpt lat="47.73159" lon="7.0451">
        <ele>466</ele>
        <time>2016-05-22T08:02:27Z</time>
      </trkpt>
      <trkpt lat="47.73155" lon="7.04492">
        <ele>472</ele>
        <time>2016-05-22T08:02:40Z</time>
      </trkpt>
      <trkpt lat="47.73173" lon="7.04452">
        <ele>472</ele>
        <time>2016-05-22T08:03:26Z</time>
      </trkpt>
      <trkpt lat="47.73197" lon="7.04424">
        <ele>464</ele>
        <time>2016-05-22T08:04:06Z</time>
      </trkpt>
      <trkpt lat="47.7321" lon="7.04416">
        <ele>464</ele>
        <time>2016-05-22T08:04:23Z</time>
      </trkpt>
      <trkpt lat="47.73214" lon="7.0441">
        <ele>463</ele>
        <time>2016-05-22T08:04:30Z</time>
      </trkpt>
      <trkpt lat="47.73216" lon="7.04403">
        <ele>454</ele>
        <time>2016-05-22T08:04:42Z</time>
      </trkpt>
      <trkpt lat="47.73223" lon="7.04386">
        <ele>450</ele>
        <time>2016-05-22T08:04:52Z</time>
      </trkpt>
      <trkpt lat="47.73227" lon="7.04382">
        <ele>453</ele>
        <time>2016-05-22T08:04:56Z</time>
      </trkpt>
      <trkpt lat="47.73229" lon="7.04377">
        <ele>454</ele>
        <time>2016-05-22T08:05:06Z</time>
      </trkpt>
      <trkpt lat="47.73254" lon="7.0435">
        <ele>458</ele>
        <time>2016-05-22T08:06:11Z</time>
      </trkpt>
      <trkpt lat="47.73263" lon="7.04332">
        <ele>453</ele>
        <time>2016-05-22T08:06:19Z</time>
      </trkpt>
      <trkpt lat="47.73272" lon="7.04318">
        <ele>449</ele>
        <time>2016-05-22T08:06:29Z</time>
      </trkpt>
      <trkpt lat="47.73281" lon="7.04307">
        <ele>448</ele>
        <time>2016-05-22T08:06:44Z</time>
      </trkpt>
      <trkpt lat="47.733" lon="7.04272">
        <ele>446</ele>
        <time>2016-05-22T08:07:22Z</time>
      </trkpt>
      <trkpt lat="47.733" lon="7.04272">
        <ele>446</ele>
        <time>2016-05-22T08:07:28Z</time>
      </trkpt>
      <trkpt lat="47.733" lon="7.04272">
        <ele>446</ele>
        <time>2016-05-22T08:07:29Z</time>
      </trkpt>
      <trkpt lat="47.73324" lon="7.04254">
        <ele>442</ele>
        <time>2016-05-22T08:07:58Z</time>
      </trkpt>
      <trkpt lat="47.73338" lon="7.04245">
        <ele>441</ele>
        <time>2016-05-22T08:08:14Z</time>
      </trkpt>
      <trkpt lat="47.73352" lon="7.04235">
        <ele>437</ele>
        <time>2016-05-22T08:08:27Z</time>
      </trkpt>
      <trkpt lat="47.73364" lon="7.04227">
        <ele>434</ele>
        <time>2016-05-22T08:08:41Z</time>
      </trkpt>
      <trkpt lat="47.7338" lon="7.04208">
        <ele>432</ele>
        <time>2016-05-22T08:08:59Z</time>
      </trkpt>
      <trkpt lat="47.73392" lon="7.04187">
        <ele>427</ele>
        <time>2016-05-22T08:09:17Z</time>
      </trkpt>
      <trkpt lat="47.73392" lon="7.0417">
        <ele>427</ele>
        <time>2016-05-22T08:09:29Z</time>
      </trkpt>
      <trkpt lat="47.7341" lon="7.04142">
        <ele>431</ele>
        <time>2016-05-22T08:09:46Z</time>
      </trkpt>
      <trkpt lat="47.73419" lon="7.04123">
        <ele>432</ele>
        <time>2016-05-22T08:09:58Z</time>
      </trkpt>
      <trkpt lat="47.73426" lon="7.04116">
        <ele>432</ele>
        <time>2016-05-22T08:10:03Z</time>
      </trkpt>
      <trkpt lat="47.73409" lon="7.04111">
        <ele>428</ele>
        <time>2016-05-22T08:10:18Z</time>
      </trkpt>
      <trkpt lat="47.73409" lon="7.04111">
        <ele>428</ele>
        <time>2016-05-22T08:10:23Z</time>
      </trkpt>
      <trkpt lat="47.73409" lon="7.04111">
        <ele>428</ele>
        <time>2016-05-22T08:10:24Z</time>
      </trkpt>
      <trkpt lat="47.73399" lon="7.04095">
        <ele>432</ele>
        <time>2016-05-22T08:10:33Z</time>
      </trkpt>
      <trkpt lat="47.73399" lon="7.04095">
        <ele>432</ele>
        <time>2016-05-22T08:10:38Z</time>
      </trkpt>
      <trkpt lat="47.73393" lon="7.04081">
        <ele>432</ele>
        <time>2016-05-22T08:10:43Z</time>
      </trkpt>
      <trkpt lat="47.73383" lon="7.04067">
        <ele>428</ele>
        <time>2016-05-22T08:10:54Z</time>
      </trkpt>
      <trkpt lat="47.73382" lon="7.04054">
        <ele>435</ele>
        <time>2016-05-22T08:11:03Z</time>
      </trkpt>
      <trkpt lat="47.73366" lon="7.04044">
        <ele>437</ele>
        <time>2016-05-22T08:11:17Z</time>
      </trkpt>
      <trkpt lat="47.7335" lon="7.04025">
        <ele>444</ele>
        <time>2016-05-22T08:11:33Z</time>
      </trkpt>
      <trkpt lat="47.73341" lon="7.04008">
        <ele>440</ele>
        <time>2016-05-22T08:11:46Z</time>
      </trkpt>
      <trkpt lat="47.73328" lon="7.03989">
        <ele>438</ele>
        <time>2016-05-22T08:12:02Z</time>
      </trkpt>
      <trkpt lat="47.73317" lon="7.03974">
        <ele>437</ele>
        <time>2016-05-22T08:12:16Z</time>
      </trkpt>
      <trkpt lat="47.73305" lon="7.03956">
        <ele>437</ele>
        <time>2016-05-22T08:12:33Z</time>
      </trkpt>
      <trkpt lat="47.73291" lon="7.0394">
        <ele>440</ele>
        <time>2016-05-22T08:12:52Z</time>
      </trkpt>
      <trkpt lat="47.73286" lon="7.03933">
        <ele>441</ele>
        <time>2016-05-22T08:12:59Z</time>
      </trkpt>
      <trkpt lat="47.73282" lon="7.03924">
        <ele>439</ele>
        <time>2016-05-22T08:13:12Z</time>
      </trkpt>
      <trkpt lat="47.73272" lon="7.03907">
        <ele>442</ele>
        <time>2016-05-22T08:13:27Z</time>
      </trkpt>
      <trkpt lat="47.73256" lon="7.0389">
        <ele>443</ele>
        <time>2016-05-22T08:13:46Z</time>
      </trkpt>
      <trkpt lat="47.73245" lon="7.03876">
        <ele>448</ele>
        <time>2016-05-22T08:14:03Z</time>
      </trkpt>
      <trkpt lat="47.73221" lon="7.03845">
        <ele>448</ele>
        <time>2016-05-22T08:14:58Z</time>
      </trkpt>
      <trkpt lat="47.73212" lon="7.03827">
        <ele>449</ele>
        <time>2016-05-22T08:15:11Z</time>
      </trkpt>
      <trkpt lat="47.73196" lon="7.038">
        <ele>452</ele>
        <time>2016-05-22T08:15:32Z</time>
      </trkpt>
      <trkpt lat="47.73182" lon="7.03783">
        <ele>451</ele>
        <time>2016-05-22T08:15:50Z</time>
      </trkpt>
      <trkpt lat="47.73165" lon="7.03756">
        <ele>453</ele>
        <time>2016-05-22T08:16:07Z</time>
      </trkpt>
      <trkpt lat="47.73151" lon="7.03745">
        <ele>456</ele>
        <time>2016-05-22T08:16:19Z</time>
      </trkpt>
      <trkpt lat="47.73137" lon="7.03729">
        <ele>461</ele>
        <time>2016-05-22T08:16:32Z</time>
      </trkpt>
      <trkpt lat="47.73126" lon="7.03706">
        <ele>462</ele>
        <time>2016-05-22T08:16:47Z</time>
      </trkpt>
      <trkpt lat="47.73111" lon="7.03691">
        <ele>461</ele>
        <time>2016-05-22T08:17:01Z</time>
      </trkpt>
      <trkpt lat="47.73096" lon="7.0367">
        <ele>461</ele>
        <time>2016-05-22T08:17:19Z</time>
      </trkpt>
      <trkpt lat="47.73086" lon="7.03653">
        <ele>457</ele>
        <time>2016-05-22T08:17:30Z</time>
      </trkpt>
      <trkpt lat="47.73087" lon="7.03629">
        <ele>456</ele>
        <time>2016-05-22T08:17:42Z</time>
      </trkpt>
      <trkpt lat="47.73093" lon="7.03619">
        <ele>454</ele>
        <time>2016-05-22T08:17:49Z</time>
      </trkpt>
      <trkpt lat="47.73102" lon="7.03596">
        <ele>456</ele>
        <time>2016-05-22T08:17:59Z</time>
      </trkpt>
      <trkpt lat="47.73109" lon="7.03573">
        <ele>454</ele>
        <time>2016-05-22T08:18:13Z</time>
      </trkpt>
      <trkpt lat="47.73117" lon="7.0356">
        <ele>456</ele>
        <time>2016-05-22T08:18:24Z</time>
      </trkpt>
      <trkpt lat="47.73122" lon="7.0355">
        <ele>454</ele>
        <time>2016-05-22T08:18:31Z</time>
      </trkpt>
      <trkpt lat="47.7313" lon="7.03525">
        <ele>456</ele>
        <time>2016-05-22T08:18:46Z</time>
      </trkpt>
      <trkpt lat="47.7313" lon="7.03525">
        <ele>456</ele>
        <time>2016-05-22T08:18:51Z</time>
      </trkpt>
      <trkpt lat="47.73134" lon="7.03514">
        <ele>454</ele>
        <time>2016-05-22T08:18:54Z</time>
      </trkpt>
      <trkpt lat="47.73141" lon="7.03495">
        <ele>452</ele>
        <time>2016-05-22T08:19:06Z</time>
      </trkpt>
      <trkpt lat="47.73145" lon="7.03475">
        <ele>452</ele>
        <time>2016-05-22T08:19:19Z</time>
      </trkpt>
      <trkpt lat="47.73154" lon="7.03456">
        <ele>450</ele>
        <time>2016-05-22T08:19:31Z</time>
      </trkpt>
      <trkpt lat="47.73165" lon="7.03439">
        <ele>453</ele>
        <time>2016-05-22T08:19:46Z</time>
      </trkpt>
      <trkpt lat="47.73174" lon="7.03413">
        <ele>451</ele>
        <time>2016-05-22T08:20:00Z</time>
      </trkpt>
      <trkpt lat="47.73182" lon="7.0339">
        <ele>451</ele>
        <time>2016-05-22T08:20:14Z</time>
      </trkpt>
      <trkpt lat="47.7319" lon="7.03373">
        <ele>451</ele>
        <time>2016-05-22T08:20:26Z</time>
      </trkpt>
      <trkpt lat="47.73199" lon="7.03347">
        <ele>451</ele>
        <time>2016-05-22T08:20:43Z</time>
      </trkpt>
      <trkpt lat="47.73202" lon="7.03339">
        <ele>451</ele>
        <time>2016-05-22T08:20:47Z</time>
      </trkpt>
      <trkpt lat="47.73205" lon="7.03331">
        <ele>450</ele>
        <time>2016-05-22T08:21:01Z</time>
      </trkpt>
      <trkpt lat="47.73212" lon="7.03312">
        <ele>452</ele>
        <time>2016-05-22T08:21:13Z</time>
      </trkpt>
      <trkpt lat="47.73221" lon="7.03285">
        <ele>455</ele>
        <time>2016-05-22T08:21:28Z</time>
      </trkpt>
      <trkpt lat="47.7323" lon="7.03261">
        <ele>454</ele>
        <time>2016-05-22T08:21:42Z</time>
      </trkpt>
      <trkpt lat="47.73231" lon="7.03257">
        <ele>454</ele>
        <time>2016-05-22T08:21:44Z</time>
      </trkpt>
      <trkpt lat="47.73237" lon="7.03246">
        <ele>455</ele>
        <time>2016-05-22T08:21:55Z</time>
      </trkpt>
      <trkpt lat="47.73249" lon="7.03213">
        <ele>454</ele>
        <time>2016-05-22T08:22:12Z</time>
      </trkpt>
      <trkpt lat="47.73254" lon="7.03197">
        <ele>454</ele>
        <time>2016-05-22T08:22:22Z</time>
      </trkpt>
      <trkpt lat="47.73262" lon="7.0318">
        <ele>451</ele>
        <time>2016-05-22T08:22:33Z</time>
      </trkpt>
      <trkpt lat="47.73273" lon="7.03152">
        <ele>455</ele>
        <time>2016-05-22T08:22:51Z</time>
      </trkpt>
      <trkpt lat="47.73278" lon="7.03128">
        <ele>455</ele>
        <time>2016-05-22T08:23:06Z</time>
      </trkpt>
      <trkpt lat="47.73295" lon="7.031">
        <ele>455</ele>
        <time>2016-05-22T08:23:24Z</time>
      </trkpt>
      <trkpt lat="47.73299" lon="7.03089">
        <ele>455</ele>
        <time>2016-05-22T08:23:31Z</time>
      </trkpt>
      <trkpt lat="47.73301" lon="7.03081">
        <ele>453</ele>
        <time>2016-05-22T08:23:46Z</time>
      </trkpt>
      <trkpt lat="47.7331" lon="7.03051">
        <ele>455</ele>
        <time>2016-05-22T08:24:04Z</time>
      </trkpt>
      <trkpt lat="47.7331" lon="7.03051">
        <ele>455</ele>
        <time>2016-05-22T08:24:12Z</time>
      </trkpt>
      <trkpt lat="47.73314" lon="7.03038">
        <ele>457</ele>
        <time>2016-05-22T08:24:17Z</time>
      </trkpt>
      <trkpt lat="47.73323" lon="7.03011">
        <ele>452</ele>
        <time>2016-05-22T08:24:32Z</time>
      </trkpt>
      <trkpt lat="47.73329" lon="7.02991">
        <ele>453</ele>
        <time>2016-05-22T08:24:43Z</time>
      </trkpt>
      <trkpt lat="47.73335" lon="7.02967">
        <ele>458</ele>
        <time>2016-05-22T08:24:57Z</time>
      </trkpt>
      <trkpt lat="47.73344" lon="7.02943">
        <ele>454</ele>
        <time>2016-05-22T08:25:13Z</time>
      </trkpt>
      <trkpt lat="47.73354" lon="7.02915">
        <ele>455</ele>
        <time>2016-05-22T08:25:30Z</time>
      </trkpt>
      <trkpt lat="47.73365" lon="7.02888">
        <ele>456</ele>
        <time>2016-05-22T08:25:45Z</time>
      </trkpt>
      <trkpt lat="47.73372" lon="7.02875">
        <ele>455</ele>
        <time>2016-05-22T08:25:56Z</time>
      </trkpt>
      <trkpt lat="47.73381" lon="7.02847">
        <ele>453</ele>
        <time>2016-05-22T08:26:13Z</time>
      </trkpt>
      <trkpt lat="47.73388" lon="7.02824">
        <ele>454</ele>
        <time>2016-05-22T08:26:26Z</time>
      </trkpt>
      <trkpt lat="47.73396" lon="7.02798">
        <ele>452</ele>
        <time>2016-05-22T08:26:41Z</time>
      </trkpt>
      <trkpt lat="47.73404" lon="7.02776">
        <ele>450</ele>
        <time>2016-05-22T08:26:55Z</time>
      </trkpt>
      <trkpt lat="47.73417" lon="7.02746">
        <ele>453</ele>
        <time>2016-05-22T08:27:13Z</time>
      </trkpt>
      <trkpt lat="47.73428" lon="7.02721">
        <ele>456</ele>
        <time>2016-05-22T08:27:29Z</time>
      </trkpt>
      <trkpt lat="47.73438" lon="7.02694">
        <ele>462</ele>
        <time>2016-05-22T08:27:46Z</time>
      </trkpt>
      <trkpt lat="47.73446" lon="7.02674">
        <ele>461</ele>
        <time>2016-05-22T08:27:58Z</time>
      </trkpt>
      <trkpt lat="47.73451" lon="7.02647">
        <ele>465</ele>
        <time>2016-05-22T08:28:12Z</time>
      </trkpt>
      <trkpt lat="47.73461" lon="7.02627">
        <ele>460</ele>
        <time>2016-05-22T08:28:23Z</time>
      </trkpt>
      <trkpt lat="47.73469" lon="7.026">
        <ele>460</ele>
        <time>2016-05-22T08:28:36Z</time>
      </trkpt>
      <trkpt lat="47.73478" lon="7.02588">
        <ele>458</ele>
        <time>2016-05-22T08:28:47Z</time>
      </trkpt>
      <trkpt lat="47.73485" lon="7.02571">
        <ele>459</ele>
        <time>2016-05-22T08:28:58Z</time>
      </trkpt>
      <trkpt lat="47.73504" lon="7.02543">
        <ele>460</ele>
        <time>2016-05-22T08:29:16Z</time>
      </trkpt>
      <trkpt lat="47.73515" lon="7.02529">
        <ele>460</ele>
        <time>2016-05-22T08:29:29Z</time>
      </trkpt>
      <trkpt lat="47.7353" lon="7.02512">
        <ele>460</ele>
        <time>2016-05-22T08:29:42Z</time>
      </trkpt>
      <trkpt lat="47.73542" lon="7.02501">
        <ele>460</ele>
        <time>2016-05-22T08:29:53Z</time>
      </trkpt>
      <trkpt lat="47.7356" lon="7.02477">
        <ele>462</ele>
        <time>2016-05-22T08:30:12Z</time>
      </trkpt>
      <trkpt lat="47.73569" lon="7.02461">
        <ele>460</ele>
        <time>2016-05-22T08:30:24Z</time>
      </trkpt>
      <trkpt lat="47.73576" lon="7.02442">
        <ele>460</ele>
        <time>2016-05-22T08:30:35Z</time>
      </trkpt>
      <trkpt lat="47.7359" lon="7.02426">
        <ele>460</ele>
        <time>2016-05-22T08:30:49Z</time>
      </trkpt>
      <trkpt lat="47.73607" lon="7.02404">
        <ele>459</ele>
        <time>2016-05-22T08:31:07Z</time>
      </trkpt>
      <trkpt lat="47.73618" lon="7.02382">
        <ele>460</ele>
        <time>2016-05-22T08:31:22Z</time>
      </trkpt>
      <trkpt lat="47.73632" lon="7.0236">
        <ele>459</ele>
        <time>2016-05-22T08:31:38Z</time>
      </trkpt>
      <trkpt lat="47.73648" lon="7.02332">
        <ele>460</ele>
        <time>2016-05-22T08:31:56Z</time>
      </trkpt>
      <trkpt lat="47.73656" lon="7.02325">
        <ele>460</ele>
        <time>2016-05-22T08:32:03Z</time>
      </trkpt>
      <trkpt lat="47.73671" lon="7.02316">
        <ele>466</ele>
        <time>2016-05-22T08:32:14Z</time>
      </trkpt>
      <trkpt lat="47.73693" lon="7.02307">
        <ele>471</ele>
        <time>2016-05-22T08:32:28Z</time>
      </trkpt>
      <trkpt lat="47.73715" lon="7.02305">
        <ele>473</ele>
        <time>2016-05-22T08:32:44Z</time>
      </trkpt>
      <trkpt lat="47.73724" lon="7.02303">
        <ele>477</ele>
        <time>2016-05-22T08:32:53Z</time>
      </trkpt>
      <trkpt lat="47.73736" lon="7.02311">
        <ele>478</ele>
        <time>2016-05-22T08:33:04Z</time>
      </trkpt>
      <trkpt lat="47.73747" lon="7.02324">
        <ele>477</ele>
        <time>2016-05-22T08:33:17Z</time>
      </trkpt>
      <trkpt lat="47.73781" lon="7.02373">
        <ele>470</ele>
        <time>2016-05-22T08:33:48Z</time>
      </trkpt>
      <trkpt lat="47.73899" lon="7.02886">
        <ele>460</ele>
        <time>2016-05-22T08:38:32Z</time>
      </trkpt>
      <trkpt lat="47.73899" lon="7.02886">
        <ele>460</ele>
        <time>2016-05-22T08:38:37Z</time>
      </trkpt>
      <trkpt lat="47.73899" lon="7.02886">
        <ele>460</ele>
        <time>2016-05-22T08:38:38Z</time>
      </trkpt>
      <trkpt lat="47.73913" lon="7.0291">
        <ele>461</ele>
        <time>2016-05-22T08:38:47Z</time>
      </trkpt>
      <trkpt lat="47.73921" lon="7.02929">
        <ele>457</ele>
        <time>2016-05-22T08:38:59Z</time>
      </trkpt>
      <trkpt lat="47.73935" lon="7.02954">
        <ele>458</ele>
        <time>2016-05-22T08:39:17Z</time>
      </trkpt>
      <trkpt lat="47.7395" lon="7.02991">
        <ele>455</ele>
        <time>2016-05-22T08:39:38Z</time>
      </trkpt>
      <trkpt lat="47.73962" lon="7.0301">
        <ele>458</ele>
        <time>2016-05-22T08:39:52Z</time>
      </trkpt>
      <trkpt lat="47.73974" lon="7.03034">
        <ele>456</ele>
        <time>2016-05-22T08:40:07Z</time>
      </trkpt>
      <trkpt lat="47.73978" lon="7.03045">
        <ele>456</ele>
        <time>2016-05-22T08:40:15Z</time>
      </trkpt>
      <trkpt lat="47.73978" lon="7.03045">
        <ele>456</ele>
        <time>2016-05-22T08:40:22Z</time>
      </trkpt>
      <trkpt lat="47.73978" lon="7.03045">
        <ele>456</ele>
        <time>2016-05-22T08:40:23Z</time>
      </trkpt>
      <trkpt lat="47.73994" lon="7.03071">
        <ele>452</ele>
        <time>2016-05-22T08:40:48Z</time>
      </trkpt>
      <trkpt lat="47.74003" lon="7.03086">
        <ele>452</ele>
        <time>2016-05-22T08:41:02Z</time>
      </trkpt>
      <trkpt lat="47.74009" lon="7.03106">
        <ele>454</ele>
        <time>2016-05-22T08:41:14Z</time>
      </trkpt>
      <trkpt lat="47.74015" lon="7.03122">
        <ele>458</ele>
        <time>2016-05-22T08:41:25Z</time>
      </trkpt>
      <trkpt lat="47.74024" lon="7.03146">
        <ele>459</ele>
        <time>2016-05-22T08:41:46Z</time>
      </trkpt>
      <trkpt lat="47.74042" lon="7.03186">
        <ele>464</ele>
        <time>2016-05-22T08:42:24Z</time>
      </trkpt>
      <trkpt lat="47.74052" lon="7.03208">
        <ele>461</ele>
        <time>2016-05-22T08:42:39Z</time>
      </trkpt>
      <trkpt lat="47.74056" lon="7.03213">
        <ele>459</ele>
        <time>2016-05-22T08:42:45Z</time>
      </trkpt>
      <trkpt lat="47.7406" lon="7.03218">
        <ele>458</ele>
        <time>2016-05-22T08:42:58Z</time>
      </trkpt>
      <trkpt lat="47.74072" lon="7.03236">
        <ele>459</ele>
        <time>2016-05-22T08:43:15Z</time>
      </trkpt>
      <trkpt lat="47.74072" lon="7.03236">
        <ele>459</ele>
        <time>2016-05-22T08:43:22Z</time>
      </trkpt>
      <trkpt lat="47.74072" lon="7.03236">
        <ele>459</ele>
        <time>2016-05-22T08:43:23Z</time>
      </trkpt>
      <trkpt lat="47.74076" lon="7.03251">
        <ele>457</ele>
        <time>2016-05-22T08:43:35Z</time>
      </trkpt>
      <trkpt lat="47.74083" lon="7.03262">
        <ele>457</ele>
        <time>2016-05-22T08:43:44Z</time>
      </trkpt>
      <trkpt lat="47.74088" lon="7.03272">
        <ele>456</ele>
        <time>2016-05-22T08:43:53Z</time>
      </trkpt>
      <trkpt lat="47.74089" lon="7.03278">
        <ele>453</ele>
        <time>2016-05-22T08:44:02Z</time>
      </trkpt>
      <trkpt lat="47.74101" lon="7.03291">
        <ele>452</ele>
        <time>2016-05-22T08:44:18Z</time>
      </trkpt>
      <trkpt lat="47.74113" lon="7.03302">
        <ele>450</ele>
        <time>2016-05-22T08:44:37Z</time>
      </trkpt>
      <trkpt lat="47.74128" lon="7.03315">
        <ele>450</ele>
        <time>2016-05-22T08:44:54Z</time>
      </trkpt>
      <trkpt lat="47.74145" lon="7.03326">
        <ele>448</ele>
        <time>2016-05-22T08:45:11Z</time>
      </trkpt>
      <trkpt lat="47.74157" lon="7.03339">
        <ele>448</ele>
        <time>2016-05-22T08:45:24Z</time>
      </trkpt>
      <trkpt lat="47.74175" lon="7.03355">
        <ele>446</ele>
        <time>2016-05-22T08:45:43Z</time>
      </trkpt>
      <trkpt lat="47.74188" lon="7.03375">
        <ele>443</ele>
        <time>2016-05-22T08:45:59Z</time>
      </trkpt>
      <trkpt lat="47.74196" lon="7.03394">
        <ele>444</ele>
        <time>2016-05-22T08:46:13Z</time>
      </trkpt>
      <trkpt lat="47.7421" lon="7.03413">
        <ele>444</ele>
        <time>2016-05-22T08:46:30Z</time>
      </trkpt>
      <trkpt lat="47.74225" lon="7.03427">
        <ele>443</ele>
        <time>2016-05-22T08:46:45Z</time>
      </trkpt>
      <trkpt lat="47.74229" lon="7.0343">
        <ele>443</ele>
        <time>2016-05-22T08:46:55Z</time>
      </trkpt>
      <trkpt lat="47.74227" lon="7.03444">
        <ele>440</ele>
        <time>2016-05-22T08:47:07Z</time>
      </trkpt>
      <trkpt lat="47.74217" lon="7.03474">
        <ele>435</ele>
        <time>2016-05-22T08:47:25Z</time>
      </trkpt>
      <trkpt lat="47.74214" lon="7.03495">
        <ele>432</ele>
        <time>2016-05-22T08:47:36Z</time>
      </trkpt>
      <trkpt lat="47.74214" lon="7.03495">
        <ele>432</ele>
        <time>2016-05-22T08:47:41Z</time>
      </trkpt>
      <trkpt lat="47.74214" lon="7.03495">
        <ele>432</ele>
        <time>2016-05-22T08:47:42Z</time>
      </trkpt>
      <trkpt lat="47.74213" lon="7.03516">
        <ele>430</ele>
        <time>2016-05-22T08:47:50Z</time>
      </trkpt>
      <trkpt lat="47.74209" lon="7.0354">
        <ele>430</ele>
        <time>2016-05-22T08:48:04Z</time>
      </trkpt>
      <trkpt lat="47.74204" lon="7.0356">
        <ele>427</ele>
        <time>2016-05-22T08:48:19Z</time>
      </trkpt>
      <trkpt lat="47.74195" lon="7.0358">
        <ele>427</ele>
        <time>2016-05-22T08:48:32Z</time>
      </trkpt>
      <trkpt lat="47.7419" lon="7.03602">
        <ele>426</ele>
        <time>2016-05-22T08:48:44Z</time>
      </trkpt>
      <trkpt lat="47.74182" lon="7.03617">
        <ele>427</ele>
        <time>2016-05-22T08:48:56Z</time>
      </trkpt>
      <trkpt lat="47.74178" lon="7.03631">
        <ele>425</ele>
        <time>2016-05-22T08:49:05Z</time>
      </trkpt>
      <trkpt lat="47.74165" lon="7.03664">
        <ele>428</ele>
        <time>2016-05-22T08:49:24Z</time>
      </trkpt>
      <trkpt lat="47.74159" lon="7.03677">
        <ele>430</ele>
        <time>2016-05-22T08:49:33Z</time>
      </trkpt>
      <trkpt lat="47.74145" lon="7.03701">
        <ele>430</ele>
        <time>2016-05-22T08:49:49Z</time>
      </trkpt>
      <trkpt lat="47.74132" lon="7.03723">
        <ele>430</ele>
        <time>2016-05-22T08:50:06Z</time>
      </trkpt>
      <trkpt lat="47.74119" lon="7.03745">
        <ele>427</ele>
        <time>2016-05-22T08:50:23Z</time>
      </trkpt>
      <trkpt lat="47.74103" lon="7.0377">
        <ele>422</ele>
        <time>2016-05-22T08:50:41Z</time>
      </trkpt>
      <trkpt lat="47.74084" lon="7.03784">
        <ele>426</ele>
        <time>2016-05-22T08:50:58Z</time>
      </trkpt>
      <trkpt lat="47.74065" lon="7.03795">
        <ele>423</ele>
        <time>2016-05-22T08:51:14Z</time>
      </trkpt>
      <trkpt lat="47.74052" lon="7.03802">
        <ele>422</ele>
        <time>2016-05-22T08:51:26Z</time>
      </trkpt>
      <trkpt lat="47.74046" lon="7.03809">
        <ele>422</ele>
        <time>2016-05-22T08:51:30Z</time>
      </trkpt>
      <trkpt lat="47.74038" lon="7.03814">
        <ele>418</ele>
        <time>2016-05-22T08:51:40Z</time>
      </trkpt>
      <trkpt lat="47.74025" lon="7.03818">
        <ele>419</ele>
        <time>2016-05-22T08:51:52Z</time>
      </trkpt>
      <trkpt lat="47.74008" lon="7.03835">
        <ele>424</ele>
        <time>2016-05-22T08:52:09Z</time>
      </trkpt>
      <trkpt lat="47.73992" lon="7.03852">
        <ele>423</ele>
        <time>2016-05-22T08:52:24Z</time>
      </trkpt>
      <trkpt lat="47.73978" lon="7.03875">
        <ele>420</ele>
        <time>2016-05-22T08:52:40Z</time>
      </trkpt>
      <trkpt lat="47.73965" lon="7.03895">
        <ele>420</ele>
        <time>2016-05-22T08:52:53Z</time>
      </trkpt>
      <trkpt lat="47.73959" lon="7.03912">
        <ele>418</ele>
        <time>2016-05-22T08:53:08Z</time>
      </trkpt>
      <trkpt lat="47.73962" lon="7.0394">
        <ele>417</ele>
        <time>2016-05-22T08:53:24Z</time>
      </trkpt>
      <trkpt lat="47.73963" lon="7.03943">
        <ele>418</ele>
        <time>2016-05-22T08:53:28Z</time>
      </trkpt>
      <trkpt lat="47.73963" lon="7.03955">
        <ele>416</ele>
        <time>2016-05-22T08:53:39Z</time>
      </trkpt>
      <trkpt lat="47.73963" lon="7.0396">
        <ele>419</ele>
        <time>2016-05-22T08:53:44Z</time>
      </trkpt>
      <trkpt lat="47.73965" lon="7.03965">
        <ele>421</ele>
        <time>2016-05-22T08:53:52Z</time>
      </trkpt>
      <trkpt lat="47.73961" lon="7.03951">
        <ele>423</ele>
        <time>2016-05-22T08:54:49Z</time>
      </trkpt>
      <trkpt lat="47.73949" lon="7.03933">
        <ele>426</ele>
        <time>2016-05-22T08:55:08Z</time>
      </trkpt>
      <trkpt lat="47.73936" lon="7.03943">
        <ele>424</ele>
        <time>2016-05-22T08:55:23Z</time>
      </trkpt>
      <trkpt lat="47.73934" lon="7.0394">
        <ele>423</ele>
        <time>2016-05-22T08:55:32Z</time>
      </trkpt>
      <trkpt lat="47.73915" lon="7.03972">
        <ele>416</ele>
        <time>2016-05-22T08:56:10Z</time>
      </trkpt>
      <trkpt lat="47.73906" lon="7.03989">
        <ele>418</ele>
        <time>2016-05-22T08:56:22Z</time>
      </trkpt>
      <trkpt lat="47.73889" lon="7.04018">
        <ele>420</ele>
        <time>2016-05-22T08:56:42Z</time>
      </trkpt>
      <trkpt lat="47.73876" lon="7.0404">
        <ele>419</ele>
        <time>2016-05-22T08:57:00Z</time>
      </trkpt>
      <trkpt lat="47.73863" lon="7.04068">
        <ele>423</ele>
        <time>2016-05-22T08:57:19Z</time>
      </trkpt>
      <trkpt lat="47.73847" lon="7.0409">
        <ele>427</ele>
        <time>2016-05-22T08:57:36Z</time>
      </trkpt>
      <trkpt lat="47.73835" lon="7.04107">
        <ele>428</ele>
        <time>2016-05-22T08:57:51Z</time>
      </trkpt>
      <trkpt lat="47.7382" lon="7.0413">
        <ele>431</ele>
        <time>2016-05-22T08:58:08Z</time>
      </trkpt>
      <trkpt lat="47.73811" lon="7.04144">
        <ele>428</ele>
        <time>2016-05-22T08:58:20Z</time>
      </trkpt>
      <trkpt lat="47.73803" lon="7.04165">
        <ele>428</ele>
        <time>2016-05-22T08:58:32Z</time>
      </trkpt>
      <trkpt lat="47.73797" lon="7.04187">
        <ele>426</ele>
        <time>2016-05-22T08:58:47Z</time>
      </trkpt>
      <trkpt lat="47.73788" lon="7.04202">
        <ele>419</ele>
        <time>2016-05-22T08:59:00Z</time>
      </trkpt>
      <trkpt lat="47.73781" lon="7.04223">
        <ele>415</ele>
        <time>2016-05-22T08:59:14Z</time>
      </trkpt>
      <trkpt lat="47.73773" lon="7.04243">
        <ele>415</ele>
        <time>2016-05-22T08:59:28Z</time>
      </trkpt>
      <trkpt lat="47.73771" lon="7.04264">
        <ele>412</ele>
        <time>2016-05-22T08:59:46Z</time>
      </trkpt>
      <trkpt lat="47.73765" lon="7.04278">
        <ele>417</ele>
        <time>2016-05-22T08:59:58Z</time>
      </trkpt>
      <trkpt lat="47.73758" lon="7.043">
        <ele>414</ele>
        <time>2016-05-22T09:00:13Z</time>
      </trkpt>
      <trkpt lat="47.73753" lon="7.04319">
        <ele>413</ele>
        <time>2016-05-22T09:00:25Z</time>
      </trkpt>
      <trkpt lat="47.73747" lon="7.04347">
        <ele>417</ele>
        <time>2016-05-22T09:00:42Z</time>
      </trkpt>
      <trkpt lat="47.7374" lon="7.04369">
        <ele>417</ele>
        <time>2016-05-22T09:00:56Z</time>
      </trkpt>
      <trkpt lat="47.7373" lon="7.04391">
        <ele>415</ele>
        <time>2016-05-22T09:01:14Z</time>
      </trkpt>
      <trkpt lat="47.73722" lon="7.04414">
        <ele>412</ele>
        <time>2016-05-22T09:01:28Z</time>
      </trkpt>
      <trkpt lat="47.73714" lon="7.04434">
        <ele>415</ele>
        <time>2016-05-22T09:01:42Z</time>
      </trkpt>
      <trkpt lat="47.73707" lon="7.0446">
        <ele>412</ele>
        <time>2016-05-22T09:01:58Z</time>
      </trkpt>
      <trkpt lat="47.73707" lon="7.0446">
        <ele>412</ele>
        <time>2016-05-22T09:02:05Z</time>
      </trkpt>
      <trkpt lat="47.73701" lon="7.0447">
        <ele>412</ele>
        <time>2016-05-22T09:02:10Z</time>
      </trkpt>
      <trkpt lat="47.73692" lon="7.04497">
        <ele>413</ele>
        <time>2016-05-22T09:02:26Z</time>
      </trkpt>
      <trkpt lat="47.73693" lon="7.04516">
        <ele>412</ele>
        <time>2016-05-22T09:02:38Z</time>
      </trkpt>
      <trkpt lat="47.73684" lon="7.04544">
        <ele>409</ele>
        <time>2016-05-22T09:02:58Z</time>
      </trkpt>
      <trkpt lat="47.7368" lon="7.04559">
        <ele>412</ele>
        <time>2016-05-22T09:03:08Z</time>
      </trkpt>
      <trkpt lat="47.73676" lon="7.04589">
        <ele>410</ele>
        <time>2016-05-22T09:03:27Z</time>
      </trkpt>
      <trkpt lat="47.73666" lon="7.04604">
        <ele>406</ele>
        <time>2016-05-22T09:03:42Z</time>
      </trkpt>
      <trkpt lat="47.73657" lon="7.0463">
        <ele>404</ele>
        <time>2016-05-22T09:04:01Z</time>
      </trkpt>
      <trkpt lat="47.73646" lon="7.04663">
        <ele>406</ele>
        <time>2016-05-22T09:04:28Z</time>
      </trkpt>
      <trkpt lat="47.73637" lon="7.04684">
        <ele>401</ele>
        <time>2016-05-22T09:04:44Z</time>
      </trkpt>
      <trkpt lat="47.7363" lon="7.04709">
        <ele>399</ele>
        <time>2016-05-22T09:04:59Z</time>
      </trkpt>
      <trkpt lat="47.73621" lon="7.04736">
        <ele>401</ele>
        <time>2016-05-22T09:05:14Z</time>
      </trkpt>
      <trkpt lat="47.73608" lon="7.04756">
        <ele>397</ele>
        <time>2016-05-22T09:05:31Z</time>
      </trkpt>
      <trkpt lat="47.736" lon="7.04773">
        <ele>400</ele>
        <time>2016-05-22T09:05:43Z</time>
      </trkpt>
      <trkpt lat="47.73592" lon="7.04789">
        <ele>403</ele>
        <time>2016-05-22T09:05:53Z</time>
      </trkpt>
      <trkpt lat="47.73581" lon="7.04813">
        <ele>406</ele>
        <time>2016-05-22T09:06:08Z</time>
      </trkpt>
      <trkpt lat="47.73572" lon="7.04837">
        <ele>406</ele>
        <time>2016-05-22T09:06:24Z</time>
      </trkpt>
      <trkpt lat="47.73562" lon="7.04862">
        <ele>404</ele>
        <time>2016-05-22T09:06:40Z</time>
      </trkpt>
      <trkpt lat="47.73554" lon="7.04878">
        <ele>402</ele>
        <time>2016-05-22T09:06:50Z</time>
      </trkpt>
      <trkpt lat="47.73549" lon="7.04888">
        <ele>401</ele>
        <time>2016-05-22T09:06:57Z</time>
      </trkpt>
      <trkpt lat="47.73539" lon="7.04907">
        <ele>402</ele>
        <time>2016-05-22T09:07:10Z</time>
      </trkpt>
      <trkpt lat="47.73525" lon="7.04932">
        <ele>404</ele>
        <time>2016-05-22T09:07:27Z</time>
      </trkpt>
      <trkpt lat="47.73515" lon="7.04946">
        <ele>403</ele>
        <time>2016-05-22T09:07:39Z</time>
      </trkpt>
      <trkpt lat="47.735" lon="7.04969">
        <ele>409</ele>
        <time>2016-05-22T09:07:55Z</time>
      </trkpt>
      <trkpt lat="47.73492" lon="7.04985">
        <ele>407</ele>
        <time>2016-05-22T09:08:06Z</time>
      </trkpt>
      <trkpt lat="47.73486" lon="7.04992">
        <ele>407</ele>
        <time>2016-05-22T09:08:12Z</time>
      </trkpt>
      <trkpt lat="47.73484" lon="7.05001">
        <ele>407</ele>
        <time>2016-05-22T09:08:28Z</time>
      </trkpt>
      <trkpt lat="47.73472" lon="7.05011">
        <ele>404</ele>
        <time>2016-05-22T09:08:38Z</time>
      </trkpt>
      <trkpt lat="47.73466" lon="7.05036">
        <ele>403</ele>
        <time>2016-05-22T09:08:52Z</time>
      </trkpt>
      <trkpt lat="47.73463" lon="7.05052">
        <ele>402</ele>
        <time>2016-05-22T09:09:01Z</time>
      </trkpt>
      <trkpt lat="47.73462" lon="7.05088">
        <ele>401</ele>
        <time>2016-05-22T09:09:20Z</time>
      </trkpt>
      <trkpt lat="47.73461" lon="7.05106">
        <ele>402</ele>
        <time>2016-05-22T09:09:31Z</time>
      </trkpt>
      <trkpt lat="47.73463" lon="7.05135">
        <ele>403</ele>
        <time>2016-05-22T09:09:48Z</time>
      </trkpt>
      <trkpt lat="47.73463" lon="7.0516">
        <ele>399</ele>
        <time>2016-05-22T09:10:06Z</time>
      </trkpt>
      <trkpt lat="47.73463" lon="7.05181">
        <ele>397</ele>
        <time>2016-05-22T09:10:18Z</time>
      </trkpt>
      <trkpt lat="47.73463" lon="7.05216">
        <ele>399</ele>
        <time>2016-05-22T09:10:38Z</time>
      </trkpt>
      <trkpt lat="47.73462" lon="7.05248">
        <ele>399</ele>
        <time>2016-05-22T09:10:56Z</time>
      </trkpt>
      <trkpt lat="47.73462" lon="7.05258">
        <ele>399</ele>
        <time>2016-05-22T09:11:02Z</time>
      </trkpt>
      <trkpt lat="47.7346" lon="7.05271">
        <ele>396</ele>
        <time>2016-05-22T09:11:14Z</time>
      </trkpt>
      <trkpt lat="47.73455" lon="7.05296">
        <ele>390</ele>
        <time>2016-05-22T09:11:29Z</time>
      </trkpt>
      <trkpt lat="47.7345" lon="7.05325">
        <ele>395</ele>
        <time>2016-05-22T09:11:46Z</time>
      </trkpt>
      <trkpt lat="47.73448" lon="7.05356">
        <ele>396</ele>
        <time>2016-05-22T09:12:03Z</time>
      </trkpt>
      <trkpt lat="47.73442" lon="7.05383">
        <ele>392</ele>
        <time>2016-05-22T09:12:18Z</time>
      </trkpt>
      <trkpt lat="47.73437" lon="7.05418">
        <ele>394</ele>
        <time>2016-05-22T09:12:38Z</time>
      </trkpt>
      <trkpt lat="47.73436" lon="7.05439">
        <ele>394</ele>
        <time>2016-05-22T09:12:51Z</time>
      </trkpt>
      <trkpt lat="47.73434" lon="7.05462">
        <ele>396</ele>
        <time>2016-05-22T09:13:04Z</time>
      </trkpt>
      <trkpt lat="47.73433" lon="7.05462">
        <ele>395</ele>
        <time>2016-05-22T09:13:13Z</time>
      </trkpt>
      <trkpt lat="47.73425" lon="7.05502">
        <ele>396</ele>
        <time>2016-05-22T09:13:59Z</time>
      </trkpt>
      <trkpt lat="47.7342" lon="7.05532">
        <ele>399</ele>
        <time>2016-05-22T09:14:18Z</time>
      </trkpt>
      <trkpt lat="47.73416" lon="7.0556">
        <ele>397</ele>
        <time>2016-05-22T09:14:35Z</time>
      </trkpt>
      <trkpt lat="47.7341" lon="7.0558">
        <ele>393</ele>
        <time>2016-05-22T09:14:47Z</time>
      </trkpt>
      <trkpt lat="47.73405" lon="7.05602">
        <ele>393</ele>
        <time>2016-05-22T09:15:02Z</time>
      </trkpt>
      <trkpt lat="47.73399" lon="7.05627">
        <ele>396</ele>
        <time>2016-05-22T09:15:20Z</time>
      </trkpt>
      <trkpt lat="47.73391" lon="7.05652">
        <ele>390</ele>
        <time>2016-05-22T09:15:36Z</time>
      </trkpt>
      <trkpt lat="47.73379" lon="7.05675">
        <ele>394</ele>
        <time>2016-05-22T09:15:56Z</time>
      </trkpt>
      <trkpt lat="47.73364" lon="7.05654">
        <ele>393</ele>
        <time>2016-05-22T09:16:14Z</time>
      </trkpt>
      <trkpt lat="47.73352" lon="7.05637">
        <ele>395</ele>
        <time>2016-05-22T09:16:29Z</time>
      </trkpt>
      <trkpt lat="47.73335" lon="7.05619">
        <ele>398</ele>
        <time>2016-05-22T09:16:46Z</time>
      </trkpt>
      <trkpt lat="47.73321" lon="7.05602">
        <ele>397</ele>
        <time>2016-05-22T09:17:04Z</time>
      </trkpt>
      <trkpt lat="47.73303" lon="7.05596">
        <ele>401</ele>
        <time>2016-05-22T09:17:22Z</time>
      </trkpt>
      <trkpt lat="47.73291" lon="7.05592">
        <ele>399</ele>
        <time>2016-05-22T09:17:34Z</time>
      </trkpt>
      <trkpt lat="47.73275" lon="7.05578">
        <ele>399</ele>
        <time>2016-05-22T09:17:51Z</time>
      </trkpt>
      <trkpt lat="47.73259" lon="7.05569">
        <ele>397</ele>
        <time>2016-05-22T09:18:08Z</time>
      </trkpt>
      <trkpt lat="47.73237" lon="7.05569">
        <ele>401</ele>
        <time>2016-05-22T09:18:28Z</time>
      </trkpt>
      <trkpt lat="47.73237" lon="7.05569">
        <ele>401</ele>
        <time>2016-05-22T09:18:35Z</time>
      </trkpt>
      <trkpt lat="47.73237" lon="7.05569">
        <ele>401</ele>
        <time>2016-05-22T09:18:36Z</time>
      </trkpt>
      <trkpt lat="47.73209" lon="7.05554">
        <ele>406</ele>
        <time>2016-05-22T09:19:27Z</time>
      </trkpt>
      <trkpt lat="47.73199" lon="7.05543">
        <ele>408</ele>
        <time>2016-05-22T09:19:40Z</time>
      </trkpt>
      <trkpt lat="47.7319" lon="7.05532">
        <ele>409</ele>
        <time>2016-05-22T09:19:52Z</time>
      </trkpt>
      <trkpt lat="47.73178" lon="7.05516">
        <ele>407</ele>
        <time>2016-05-22T09:20:09Z</time>
      </trkpt>
      <trkpt lat="47.73177" lon="7.05508">
        <ele>408</ele>
        <time>2016-05-22T09:20:15Z</time>
      </trkpt>
      <trkpt lat="47.73176" lon="7.05506">
        <ele>409</ele>
        <time>2016-05-22T09:20:23Z</time>
      </trkpt>
      <trkpt lat="47.73154" lon="7.05475">
        <ele>414</ele>
        <time>2016-05-22T09:21:04Z</time>
      </trkpt>
      <trkpt lat="47.73142" lon="7.05452">
        <ele>415</ele>
        <time>2016-05-22T09:21:25Z</time>
      </trkpt>
      <trkpt lat="47.73131" lon="7.05437">
        <ele>417</ele>
        <time>2016-05-22T09:21:41Z</time>
      </trkpt>
      <trkpt lat="47.7313" lon="7.05433">
        <ele>418</ele>
        <time>2016-05-22T09:21:49Z</time>
      </trkpt>
      <trkpt lat="47.73106" lon="7.05407">
        <ele>419</ele>
        <time>2016-05-22T09:22:26Z</time>
      </trkpt>
      <trkpt lat="47.73093" lon="7.05393">
        <ele>422</ele>
        <time>2016-05-22T09:22:43Z</time>
      </trkpt>
      <trkpt lat="47.73079" lon="7.05387">
        <ele>421</ele>
        <time>2016-05-22T09:22:59Z</time>
      </trkpt>
      <trkpt lat="47.73055" lon="7.05368">
        <ele>425</ele>
        <time>2016-05-22T09:23:32Z</time>
      </trkpt>
      <trkpt lat="47.7305" lon="7.05355">
        <ele>426</ele>
        <time>2016-05-22T09:23:43Z</time>
      </trkpt>
      <trkpt lat="47.73046" lon="7.05341">
        <ele>425</ele>
        <time>2016-05-22T09:23:52Z</time>
      </trkpt>
      <trkpt lat="47.73047" lon="7.05319">
        <ele>421</ele>
        <time>2016-05-22T09:24:08Z</time>
      </trkpt>
      <trkpt lat="47.73047" lon="7.05319">
        <ele>421</ele>
        <time>2016-05-22T09:24:16Z</time>
      </trkpt>
      <trkpt lat="47.73052" lon="7.05304">
        <ele>424</ele>
        <time>2016-05-22T09:24:24Z</time>
      </trkpt>
      <trkpt lat="47.73067" lon="7.05283">
        <ele>425</ele>
        <time>2016-05-22T09:24:43Z</time>
      </trkpt>
      <trkpt lat="47.73079" lon="7.0527">
        <ele>424</ele>
        <time>2016-05-22T09:24:59Z</time>
      </trkpt>
      <trkpt lat="47.73093" lon="7.05253">
        <ele>430</ele>
        <time>2016-05-22T09:25:19Z</time>
      </trkpt>
      <trkpt lat="47.73106" lon="7.05239">
        <ele>429</ele>
        <time>2016-05-22T09:25:35Z</time>
      </trkpt>
      <trkpt lat="47.73118" lon="7.05226">
        <ele>429</ele>
        <time>2016-05-22T09:25:50Z</time>
      </trkpt>
      <trkpt lat="47.7312" lon="7.05224">
        <ele>428</ele>
        <time>2016-05-22T09:25:54Z</time>
      </trkpt>
      <trkpt lat="47.73118" lon="7.05226">
        <ele>429</ele>
        <time>2016-05-22T09:26:04Z</time>
      </trkpt>
      <trkpt lat="47.73118" lon="7.05226">
        <ele>380.6</ele>
        <time>2016-05-22T09:26:04Z</time>
      </trkpt>
      <trkpt lat="47.73118" lon="7.05226">
        <ele>380.6</ele>
        <time>2016-05-22T09:26:08Z</time>
      </trkpt>
    </trkseg>
  </trk>
</gpx>